Time;durP1;ratioP1;P1;durP2;ratioP2;P2;SDS_P1;SDS_P2;PMS_P1;PMS_P2;Temp;Humidity;BMP_temperature;BMP_pressure;BME280_temperature;BME280_humidity;BME280_pressure;Samples;Min_cycle;Max_cycle;Signal;HPM_P1;HPM_P2
2021/09/07 00:01:58;;;;;;;;;15.25;12.75;;;;;20.83;58.22;102060.78;4912636;28;45486;-79
2021/09/07 00:04:29;;;;;;;;;14.75;13.00;;;;;20.77;57.56;102067.34;4922150;28;46451;-79
2021/09/07 00:06:55;;;;;;;;;11.00;10.00;;;;;20.77;58.28;102072.69;4917314;28;45480;-79
2021/09/07 00:09:21;;;;;;;;;15.50;12.00;;;;;20.72;57.76;102065.88;4890058;29;45276;-80
2021/09/07 00:11:46;;;;;;;;;16.25;12.50;;;;;20.69;58.22;102073.09;4904474;28;45314;-82
2021/09/07 00:14:12;;;;;;;;;14.25;11.25;;;;;20.67;57.32;102066.13;4921657;28;46161;-82
2021/09/07 00:16:37;;;;;;;;;13.25;11.00;;;;;20.65;57.52;102070.69;4922197;28;45456;-82
2021/09/07 00:19:02;;;;;;;;;12.25;10.75;;;;;20.62;58.52;102065.53;4922434;28;45504;-82
2021/09/07 00:21:28;;;;;;;;;9.25;9.25;;;;;20.57;58.15;102066.63;4904963;28;47013;-82
2021/09/07 00:23:53;;;;;;;;;12.00;10.50;;;;;20.54;58.02;102069.50;4922249;28;46641;-82
2021/09/07 00:26:18;;;;;;;;;13.00;12.50;;;;;20.50;58.14;102064.38;4922154;28;45433;-82
2021/09/07 00:28:44;;;;;;;;;11.00;11.00;;;;;20.50;57.82;102067.03;4905238;28;45319;-82
2021/09/07 00:31:09;;;;;;;;;12.50;9.75;;;;;20.45;58.01;102068.16;4912348;28;45384;-82
2021/09/07 00:33:34;;;;;;;;;11.00;11.00;;;;;20.48;58.46;102072.47;4909073;28;45333;-82
2021/09/07 00:36:00;;;;;;;;;10.50;8.00;;;;;20.42;58.54;102065.66;4922113;28;45504;-84
2021/09/07 00:38:25;;;;;;;;;11.50;10.25;;;;;20.39;58.33;102065.84;4904943;28;45324;-84
2021/09/07 00:40:51;;;;;;;;;10.75;9.75;;;;;20.34;58.16;102063.41;4904973;28;45646;-84
2021/09/07 00:43:16;;;;;;;;;12.00;10.50;;;;;20.32;58.86;102069.78;4902605;29;45245;-84
2021/09/07 00:45:41;;;;;;;;;12.00;11.25;;;;;20.24;59.02;102059.50;4886113;29;45708;-84
2021/09/07 00:48:07;;;;;;;;;14.25;11.25;;;;;20.21;58.97;102063.19;4886102;29;45423;-84
2021/09/07 00:50:32;;;;;;;;;13.00;10.50;;;;;20.17;59.19;102053.66;4902865;29;45406;-83
2021/09/07 00:52:58;;;;;;;;;14.25;12.75;;;;;20.15;58.82;102052.00;4902801;29;46421;-85
2021/09/07 00:55:26;;;;;;;;;11.25;11.25;;;;;20.12;58.99;102053.84;4902821;29;45366;-84
2021/09/07 00:57:51;;;;;;;;;15.00;13.25;;;;;20.10;59.53;102052.22;4901625;29;45352;-82
2021/09/07 01:00:17;;;;;;;;;12.25;10.25;;;;;20.07;58.92;102044.38;4912114;28;45276;-83
2021/09/07 01:02:42;;;;;;;;;13.00;10.50;;;;;20.02;59.63;102040.13;4917532;28;45399;-84
2021/09/07 01:05:09;;;;;;;;;10.00;9.75;;;;;20.02;59.81;102050.81;4920982;28;45478;-84
2021/09/07 01:07:35;;;;;;;;;11.75;10.00;;;;;20.00;59.51;102042.00;4919431;28;45407;-83
2021/09/07 01:10:04;;;;;;;;;13.50;11.75;;;;;19.97;59.98;102034.19;4906082;28;45407;-83
2021/09/07 01:12:29;;;;;;;;;15.00;11.50;;;;;19.96;59.55;102035.09;4920754;28;45224;-83
2021/09/07 01:14:55;;;;;;;;;10.75;10.50;;;;;19.94;59.19;102021.00;4918749;28;45436;-78
2021/09/07 01:17:20;;;;;;;;;17.25;12.25;;;;;19.93;59.76;102023.75;4921713;28;45295;-81
2021/09/07 01:19:49;;;;;;;;;19.00;14.25;;;;;19.91;59.73;102023.81;4919835;28;45430;-80
2021/09/07 01:22:16;;;;;;;;;13.75;12.75;;;;;19.91;59.96;102021.16;4903542;28;46142;-80
2021/09/07 01:24:41;;;;;;;;;14.00;11.50;;;;;19.87;59.90;102015.13;4885302;29;45462;-80
2021/09/07 01:27:08;;;;;;;;;9.25;9.25;;;;;19.84;60.11;102017.06;4905795;28;45198;-80
2021/09/07 01:29:35;;;;;;;;;12.50;11.75;;;;;19.84;60.38;102017.06;4911564;28;45213;-80
2021/09/07 01:32:03;;;;;;;;;11.00;9.50;;;;;19.78;60.22;102011.13;4907980;28;45742;-78
2021/09/07 01:34:29;;;;;;;;;15.00;11.75;;;;;19.74;60.38;102004.22;4923639;28;45279;-80
2021/09/07 01:36:56;;;;;;;;;13.75;12.75;;;;;19.71;60.26;102007.03;4908224;28;45297;-81
2021/09/07 01:39:22;;;;;;;;;13.75;10.50;;;;;19.74;60.12;102009.56;4905694;29;45197;-81
2021/09/07 01:41:48;;;;;;;;;14.25;13.50;;;;;19.71;60.18;102001.72;4905435;29;45494;-85
2021/09/07 01:44:14;;;;;;;;;12.75;10.00;;;;;19.70;60.65;102004.47;4905570;28;45779;-84
2021/09/07 01:46:39;;;;;;;;;13.25;10.00;;;;;19.69;60.70;102008.94;4888356;29;45250;-82
2021/09/07 01:49:09;;;;;;;;;11.50;11.25;;;;;19.68;60.83;102012.53;4898729;28;46904;-81
2021/09/07 01:51:35;;;;;;;;;12.00;11.25;;;;;19.63;60.87;102001.25;4893969;29;47540;-87
2021/09/07 01:54:00;;;;;;;;;15.00;13.75;;;;;19.58;61.20;101997.97;4905432;29;45190;-87
2021/09/07 01:56:26;;;;;;;;;13.00;11.75;;;;;19.53;60.96;101995.53;4905597;28;45362;-82
2021/09/07 01:58:51;;;;;;;;;12.00;12.00;;;;;19.54;61.34;102006.13;4905056;29;45230;-84
2021/09/07 02:01:16;;;;;;;;;15.75;12.25;;;;;19.50;61.06;102003.69;4907447;28;45234;-84
2021/09/07 02:03:42;;;;;;;;;12.25;11.50;;;;;19.47;61.32;102010.03;4915134;28;45272;-84
2021/09/07 02:06:08;;;;;;;;;8.75;8.25;;;;;19.40;61.28;102008.63;4905210;29;45503;-84
2021/09/07 02:08:33;;;;;;;;;10.25;9.00;;;;;19.38;61.37;102000.72;4903879;28;46318;-83
2021/09/07 02:10:58;;;;;;;;;15.25;13.50;;;;;19.37;61.76;102006.97;4913240;28;45475;-83
2021/09/07 02:13:24;;;;;;;;;10.25;10.25;;;;;19.38;61.62;102007.84;4904987;28;45377;-89
2021/09/07 02:15:49;;;;;;;;;14.25;13.00;;;;;19.31;61.78;101999.31;4888011;29;45338;-86
2021/09/07 02:18:15;;;;;;;;;11.50;9.25;;;;;19.32;61.44;102001.00;4905051;29;45649;-82
2021/09/07 02:20:40;;;;;;;;;11.50;10.50;;;;;19.30;62.28;101993.09;4904760;29;45487;-80
2021/09/07 02:23:06;;;;;;;;;15.25;12.00;;;;;19.30;61.74;101995.78;4905065;29;45339;-79
2021/09/07 02:25:32;;;;;;;;;13.50;12.25;;;;;19.29;62.01;101996.69;4916547;28;45335;-82
2021/09/07 02:27:57;;;;;;;;;14.25;12.25;;;;;19.28;62.16;102004.78;4891700;28;46385;-81
2021/09/07 02:30:24;;;;;;;;;14.00;10.50;;;;;19.29;62.38;102001.16;4906773;28;47944;-89
2021/09/07 02:32:49;;;;;;;;;15.00;13.25;;;;;19.26;61.98;101999.50;4911220;28;45852;-89
2021/09/07 02:35:14;;;;;;;;;14.50;12.75;;;;;19.21;62.50;101986.41;4906028;28;45352;-91
2021/09/07 02:37:41;;;;;;;;;16.25;13.25;;;;;19.20;62.38;102000.69;4917582;28;46957;-88
2021/09/07 02:40:07;;;;;;;;;15.25;15.00;;;;;19.17;62.96;101994.59;4922370;28;48011;-87
2021/09/07 02:42:32;;;;;;;;;16.50;15.00;;;;;19.16;62.43;101992.91;4923203;28;45173;-88
2021/09/07 02:44:58;;;;;;;;;12.25;11.50;;;;;19.16;62.78;101985.75;4922777;28;45241;-89
2021/09/07 02:47:23;;;;;;;;;14.00;12.25;;;;;19.14;62.96;101986.78;4923357;28;45212;-88
2021/09/07 02:49:49;;;;;;;;;13.00;10.50;;;;;19.11;63.15;101983.31;4906354;28;46307;-89
2021/09/07 02:52:14;;;;;;;;;12.75;12.75;;;;;19.10;63.18;101980.75;4923391;28;45311;-90
2021/09/07 02:54:39;;;;;;;;;15.25;13.00;;;;;19.04;62.52;101973.91;4922490;28;45447;-90
2021/09/07 02:57:05;;;;;;;;;13.50;13.50;;;;;19.04;63.22;101970.41;4906286;28;45895;-91
2021/09/07 02:59:30;;;;;;;;;14.50;14.50;;;;;19.02;63.00;101970.44;4906226;28;47893;-91
2021/09/07 03:01:55;;;;;;;;;14.25;13.00;;;;;19.00;63.40;101969.66;4923469;28;45641;-89
2021/09/07 03:04:21;;;;;;;;;13.00;11.50;;;;;18.96;62.98;101968.09;4902553;28;45459;-89
2021/09/07 03:06:48;;;;;;;;;13.50;12.25;;;;;18.96;63.34;101962.78;4922782;28;45489;-89
2021/09/07 03:09:13;;;;;;;;;13.50;12.50;;;;;18.95;62.92;101955.72;4923387;28;46321;-87
2021/09/07 03:11:39;;;;;;;;;14.25;12.25;;;;;18.92;63.18;101958.53;4920640;28;45430;-87
2021/09/07 03:14:04;;;;;;;;;17.00;15.25;;;;;18.93;63.78;101965.59;4908424;28;45387;-87
2021/09/07 03:16:33;;;;;;;;;14.50;11.75;;;;;18.91;63.75;101964.81;4923162;28;45373;-81
2021/09/07 03:18:59;;;;;;;;;16.75;15.00;;;;;18.87;63.95;101961.41;4922906;28;45378;-82
2021/09/07 03:21:25;;;;;;;;;14.50;12.75;;;;;18.87;63.62;101966.75;4904322;28;45792;-87
2021/09/07 03:23:50;;;;;;;;;12.50;12.50;;;;;18.84;63.42;101954.44;4921740;28;45455;-87
2021/09/07 03:26:16;;;;;;;;;19.50;15.00;;;;;18.81;63.51;101965.25;4911099;28;45398;-87
2021/09/07 03:28:41;;;;;;;;;14.50;14.50;;;;;18.79;63.77;101967.13;4886491;29;47513;-90
2021/09/07 03:31:07;;;;;;;;;14.50;11.75;;;;;18.78;63.86;101960.94;4914617;28;45353;-87
2021/09/07 03:33:32;;;;;;;;;11.25;11.25;;;;;18.76;63.99;101961.97;4904482;28;45314;-86
2021/09/07 03:35:58;;;;;;;;;10.75;9.25;;;;;18.74;63.91;101954.03;4902424;29;47433;-82
2021/09/07 03:38:23;;;;;;;;;15.00;13.75;;;;;18.71;64.05;101951.53;4902233;29;47306;-84
2021/09/07 03:40:49;;;;;;;;;12.75;12.75;;;;;18.69;63.85;101944.53;4903750;29;45427;-84
2021/09/07 03:43:14;;;;;;;;;15.25;13.75;;;;;18.68;64.18;101943.69;4909449;28;45356;-84
2021/09/07 03:45:41;;;;;;;;;16.50;14.75;;;;;18.69;63.88;101947.22;4921897;28;45300;-89
2021/09/07 03:48:06;;;;;;;;;16.25;13.25;;;;;18.66;64.51;101954.41;4894136;28;47379;-87
2021/09/07 03:50:32;;;;;;;;;21.00;13.75;;;;;18.63;64.62;101941.25;4921816;28;45214;-87
2021/09/07 03:52:57;;;;;;;;;20.00;14.00;;;;;18.60;64.83;101946.72;4922574;28;45280;-87
2021/09/07 03:55:22;;;;;;;;;17.75;13.75;;;;;18.56;64.81;101950.47;4922434;28;45277;-81
2021/09/07 03:57:48;;;;;;;;;16.75;15.75;;;;;18.55;64.92;101944.28;4921403;28;45413;-81
2021/09/07 04:00:14;;;;;;;;;14.25;13.00;;;;;18.53;64.85;101955.94;4922622;28;45280;-81
2021/09/07 04:02:39;;;;;;;;;13.75;13.00;;;;;18.53;65.01;101943.47;4902117;28;45510;-81
2021/09/07 04:05:06;;;;;;;;;14.25;12.75;;;;;18.51;64.88;101936.50;4913054;28;45235;-87
2021/09/07 04:07:31;;;;;;;;;15.50;12.75;;;;;18.51;64.71;101942.69;4905022;28;47748;-87
2021/09/07 04:09:56;;;;;;;;;17.00;17.00;;;;;18.44;64.63;101936.81;4922356;28;45354;-86
2021/09/07 04:12:22;;;;;;;;;13.25;13.25;;;;;18.44;64.83;101938.59;4910702;28;45232;-87
2021/09/07 04:14:47;;;;;;;;;13.25;11.50;;;;;18.44;65.22;101942.13;4913204;28;45495;-87
2021/09/07 04:17:12;;;;;;;;;17.25;16.00;;;;;18.43;64.80;101947.50;4885859;29;48351;-87
2021/09/07 04:19:38;;;;;;;;;12.75;12.25;;;;;18.37;65.06;101946.00;4903395;28;45462;-81
2021/09/07 04:22:03;;;;;;;;;15.25;13.25;;;;;18.37;65.52;101951.31;4903695;28;45296;-76
2021/09/07 04:24:29;;;;;;;;;15.25;13.25;;;;;18.38;65.25;101958.38;4922279;28;45345;-77
2021/09/07 04:26:54;;;;;;;;;22.00;19.50;;;;;18.35;65.51;101958.50;4908962;28;46296;-87
2021/09/07 04:29:21;;;;;;;;;20.25;16.00;;;;;18.36;64.80;101960.25;4902913;29;45494;-86
2021/09/07 04:31:47;;;;;;;;;15.00;14.50;;;;;18.35;65.21;101958.50;4903137;29;45238;-87
2021/09/07 04:34:12;;;;;;;;;17.00;13.25;;;;;18.36;65.58;101965.56;4915767;28;45275;-87
2021/09/07 04:36:38;;;;;;;;;16.50;14.50;;;;;18.33;65.51;101965.72;4906461;28;45502;-86
2021/09/07 04:39:03;;;;;;;;;17.75;16.75;;;;;18.35;65.25;101969.16;4904281;28;45262;-84
2021/09/07 04:41:29;;;;;;;;;19.75;16.25;;;;;18.30;65.71;101963.19;4890964;28;45190;-83
2021/09/07 04:43:54;;;;;;;;;16.00;15.50;;;;;18.32;65.85;101972.81;4909114;28;45236;-83
2021/09/07 04:46:20;;;;;;;;;12.75;12.25;;;;;18.29;65.66;101972.13;4922131;28;46518;-83
2021/09/07 04:48:48;;;;;;;;;19.25;16.00;;;;;18.31;65.11;101983.56;4921350;28;45343;-78
2021/09/07 04:51:13;;;;;;;;;22.00;17.50;;;;;18.30;65.84;101985.34;4922076;28;45332;-81
2021/09/07 04:53:39;;;;;;;;;15.75;15.75;;;;;18.29;65.63;101974.78;4921772;28;45382;-76
2021/09/07 04:56:04;;;;;;;;;16.50;15.00;;;;;18.28;65.75;101978.38;4921761;28;45402;-78
2021/09/07 04:58:29;;;;;;;;;17.50;15.50;;;;;18.29;65.57;101980.97;4921446;28;45275;-78
2021/09/07 05:00:55;;;;;;;;;18.00;16.50;;;;;18.25;65.42;101971.38;4919609;28;45808;-77
2021/09/07 05:03:20;;;;;;;;;16.00;15.50;;;;;18.25;65.91;101976.72;4902800;29;45334;-77
2021/09/07 05:05:46;;;;;;;;;19.25;15.00;;;;;18.24;65.97;101976.78;4902166;28;46187;-76
2021/09/07 05:08:11;;;;;;;;;16.25;14.75;;;;;18.22;66.04;101980.38;4913749;28;45182;-76
2021/09/07 05:10:36;;;;;;;;;19.25;17.50;;;;;18.20;66.24;101982.25;4906590;28;45477;-76
2021/09/07 05:13:02;;;;;;;;;15.00;15.00;;;;;18.17;66.33;101995.69;4921237;28;45256;-76
2021/09/07 05:15:27;;;;;;;;;20.25;16.25;;;;;18.16;66.30;101998.38;4904121;28;47568;-76
2021/09/07 05:17:52;;;;;;;;;20.75;16.25;;;;;18.12;66.29;101992.34;4912421;28;45406;-76
2021/09/07 05:20:18;;;;;;;;;18.75;16.50;;;;;18.11;66.29;101995.94;4921950;28;45363;-76
2021/09/07 05:22:45;;;;;;;;;22.25;18.50;;;;;18.06;66.65;101988.16;4919892;28;45557;-76
2021/09/07 05:25:10;;;;;;;;;25.75;21.00;;;;;18.07;66.38;101994.34;4900081;28;47367;-76
2021/09/07 05:27:36;;;;;;;;;16.25;14.50;;;;;18.07;66.63;101987.25;4921489;28;45357;-78
2021/09/07 05:30:07;;;;;;;;;15.75;15.25;;;;;18.07;66.61;101991.69;4918361;28;45583;-78
2021/09/07 05:32:32;;;;;;;;;17.50;15.50;;;;;18.05;66.71;101980.25;4918985;28;45485;-78
2021/09/07 05:34:58;;;;;;;;;21.75;16.50;;;;;18.04;66.99;101991.81;4902157;28;47076;-78
2021/09/07 05:37:23;;;;;;;;;21.75;18.75;;;;;18.04;66.79;101995.34;4916997;28;45454;-77
2021/09/07 05:39:49;;;;;;;;;18.25;16.75;;;;;18.04;66.88;101991.81;4921081;28;45456;-77
2021/09/07 05:42:14;;;;;;;;;21.25;18.75;;;;;18.03;66.81;101990.94;4920177;28;45510;-78
2021/09/07 05:44:39;;;;;;;;;23.25;19.75;;;;;18.03;67.26;101995.41;4919726;28;46589;-78
2021/09/07 05:47:05;;;;;;;;;23.00;19.75;;;;;17.99;67.54;101995.56;4919882;28;45550;-77
2021/09/07 05:49:31;;;;;;;;;22.50;21.25;;;;;18.02;66.70;102001.69;4922677;28;45525;-81
2021/09/07 05:51:57;;;;;;;;;22.25;19.75;;;;;17.99;67.22;101994.69;4916466;28;46394;-79
2021/09/07 05:54:22;;;;;;;;;23.00;21.25;;;;;18.03;67.38;102006.03;4918499;28;45422;-78
2021/09/07 05:56:48;;;;;;;;;18.00;17.00;;;;;18.00;67.80;102005.25;4918269;28;45542;-76
2021/09/07 05:59:13;;;;;;;;;21.00;19.75;;;;;18.03;67.48;102004.25;4903143;28;45774;-75
2021/09/07 06:01:39;;;;;;;;;20.75;17.75;;;;;18.05;67.36;101999.72;4898980;29;45558;-75
2021/09/07 06:04:04;;;;;;;;;21.50;20.50;;;;;18.06;67.74;101997.94;4910388;28;46464;-74
2021/09/07 06:06:30;;;;;;;;;25.25;23.00;;;;;18.07;68.02;101999.69;4918089;28;45292;-75
2021/09/07 06:08:56;;;;;;;;;20.00;17.75;;;;;18.07;67.87;102003.22;4918335;28;45565;-75
2021/09/07 06:11:21;;;;;;;;;24.00;21.00;;;;;18.09;67.91;102001.34;4919659;28;45390;-75
2021/09/07 06:13:46;;;;;;;;;22.50;19.00;;;;;18.10;67.83;101997.72;4902268;28;47204;-75
2021/09/07 06:16:12;;;;;;;;;22.50;19.75;;;;;18.14;67.52;102001.13;4917963;28;45332;-75
2021/09/07 06:18:38;;;;;;;;;15.75;15.00;;;;;18.19;67.81;101995.59;4902374;28;45305;-75
2021/09/07 06:21:03;;;;;;;;;21.25;18.50;;;;;18.22;67.29;101991.00;4919857;28;45524;-75
2021/09/07 06:23:29;;;;;;;;;18.50;17.25;;;;;18.30;67.30;101997.78;4920973;28;45450;-75
2021/09/07 06:25:58;;;;;;;;;20.25;17.50;;;;;18.37;67.68;101985.06;4915351;28;46221;-75
2021/09/07 06:28:23;;;;;;;;;24.25;20.75;;;;;18.41;66.60;101987.53;4922121;28;45372;-75
2021/09/07 06:30:48;;;;;;;;;18.00;18.00;;;;;18.50;67.31;101988.00;4923875;28;45572;-75
2021/09/07 06:33:14;;;;;;;;;18.00;16.50;;;;;18.57;66.72;101992.09;4920973;28;45464;-75
2021/09/07 06:35:39;;;;;;;;;22.00;16.75;;;;;18.63;66.36;101994.50;4921663;28;45471;-75
2021/09/07 06:38:04;;;;;;;;;20.00;17.75;;;;;18.70;66.38;101994.19;4923930;28;45303;-75
2021/09/07 06:40:30;;;;;;;;;18.25;16.00;;;;;18.76;66.19;101991.25;4906077;28;46257;-75
2021/09/07 06:42:55;;;;;;;;;22.75;20.25;;;;;18.80;66.44;101991.94;4906312;28;47142;-75
2021/09/07 06:45:21;;;;;;;;;21.25;17.50;;;;;18.85;66.37;101998.78;4922360;28;45727;-75
2021/09/07 06:47:46;;;;;;;;;17.75;16.25;;;;;18.89;66.37;101997.69;4919655;28;45412;-75
2021/09/07 06:50:12;;;;;;;;;24.50;20.50;;;;;18.95;66.41;102003.66;4921213;28;45491;-75
2021/09/07 06:52:37;;;;;;;;;22.25;17.00;;;;;18.96;66.10;101992.94;4923124;28;45319;-75
2021/09/07 06:55:03;;;;;;;;;21.75;20.25;;;;;19.00;66.27;101997.19;4923041;28;45180;-75
2021/09/07 06:57:29;;;;;;;;;16.50;16.00;;;;;19.06;65.93;102003.16;4908091;28;45222;-75
2021/09/07 06:59:56;;;;;;;;;26.50;22.75;;;;;19.12;64.88;102001.03;4904127;29;45443;-75
2021/09/07 07:02:22;;;;;;;;;24.00;17.50;;;;;19.18;64.13;102005.25;4887014;29;47358;-75
2021/09/07 07:04:48;;;;;;;;;18.50;16.75;;;;;19.24;64.30;102006.72;4886784;28;45711;-75
2021/09/07 07:07:13;;;;;;;;;17.75;16.50;;;;;19.33;64.90;102014.25;4904206;29;45357;-75
2021/09/07 07:09:39;;;;;;;;;23.75;19.00;;;;;19.40;64.26;102008.63;4902806;29;47174;-75
2021/09/07 07:12:05;;;;;;;;;23.00;19.50;;;;;19.48;63.96;102011.78;4905978;28;45802;-75
2021/09/07 07:14:31;;;;;;;;;18.75;17.00;;;;;19.56;63.96;102020.22;4905380;28;45424;-75
2021/09/07 07:16:56;;;;;;;;;21.25;18.50;;;;;19.62;62.86;102020.84;4923216;28;45433;-75
2021/09/07 07:19:21;;;;;;;;;20.50;18.75;;;;;19.67;62.25;102016.16;4923119;28;45519;-75
2021/09/07 07:21:48;;;;;;;;;23.50;18.00;;;;;19.73;62.50;102021.16;4923032;28;45479;-75
2021/09/07 07:24:16;;;;;;;;;22.00;16.75;;;;;19.79;61.73;102015.53;4916450;28;45677;-75
2021/09/07 07:26:41;;;;;;;;;24.50;18.50;;;;;19.88;61.64;102026.63;4914428;28;45445;-75
2021/09/07 07:29:07;;;;;;;;;20.25;16.75;;;;;19.92;61.76;102025.56;4909304;28;45446;-75
2021/09/07 07:31:32;;;;;;;;;19.25;19.25;;;;;19.96;61.56;102027.09;4906115;28;45574;-75
2021/09/07 07:33:58;;;;;;;;;27.50;20.75;;;;;20.02;61.06;102024.13;4914891;28;45376;-75
2021/09/07 07:36:23;;;;;;;;;20.75;18.25;;;;;20.08;60.89;102027.38;4916964;28;45970;-75
2021/09/07 07:38:48;;;;;;;;;27.50;20.25;;;;;20.12;61.03;102024.50;4915576;28;45880;-75
2021/09/07 07:41:14;;;;;;;;;21.75;18.75;;;;;20.21;60.82;102025.84;4922651;28;46523;-75
2021/09/07 07:43:44;;;;;;;;;24.00;22.00;;;;;20.23;60.29;102026.59;4922463;28;45342;-75
2021/09/07 07:46:10;;;;;;;;;20.00;15.25;;;;;20.31;60.74;102023.53;4907569;28;45449;-75
2021/09/07 07:48:36;;;;;;;;;23.25;19.75;;;;;20.38;60.83;102028.53;4914557;28;45623;-75
2021/09/07 07:51:01;;;;;;;;;21.00;19.50;;;;;20.45;60.71;102022.75;4886379;29;48229;-75
2021/09/07 07:53:26;;;;;;;;;17.50;16.75;;;;;20.52;60.37;102025.13;4903695;28;45264;-75
2021/09/07 07:55:52;;;;;;;;;22.25;20.75;;;;;20.59;60.35;102023.81;4888330;28;45527;-75
2021/09/07 07:58:17;;;;;;;;;21.50;19.75;;;;;20.65;59.79;102023.47;4915746;28;45607;-75
2021/09/07 08:00:45;;;;;;;;;20.75;17.50;;;;;20.68;60.09;102017.97;4914858;28;46359;-75
2021/09/07 08:03:11;;;;;;;;;26.75;20.25;;;;;20.76;59.17;102022.88;4907851;28;45788;-75
2021/09/07 08:05:37;;;;;;;;;15.25;14.25;;;;;20.85;59.69;102018.81;4903368;28;45434;-75
2021/09/07 08:08:02;;;;;;;;;19.00;17.25;;;;;20.90;58.94;102024.75;4903159;29;45277;-75
2021/09/07 08:10:28;;;;;;;;;21.25;19.25;;;;;20.97;59.04;102027.06;4909670;28;46386;-75
2021/09/07 08:12:53;;;;;;;;;16.75;16.50;;;;;21.03;59.17;102021.44;4899302;28;45283;-75
2021/09/07 08:15:18;;;;;;;;;18.00;16.25;;;;;21.08;59.48;102014.00;4899799;28;45276;-75
2021/09/07 08:17:44;;;;;;;;;16.25;14.25;;;;;21.18;59.47;102018.81;4922137;28;45363;-75
2021/09/07 08:20:10;;;;;;;;;17.25;16.50;;;;;21.23;58.56;102019.41;4904980;28;48449;-74
2021/09/07 08:22:35;;;;;;;;;20.00;17.00;;;;;21.29;58.40;102018.16;4920443;28;45371;-74
2021/09/07 08:25:00;;;;;;;;;16.75;14.75;;;;;21.36;58.66;102012.38;4918311;28;45272;-75
2021/09/07 08:27:26;;;;;;;;;16.50;15.50;;;;;21.42;58.36;102015.63;4887332;29;46955;-74
2021/09/07 08:29:51;;;;;;;;;14.25;13.25;;;;;21.45;58.60;102010.13;4902769;29;45384;-75
2021/09/07 08:32:17;;;;;;;;;13.25;12.50;;;;;21.55;57.67;102015.78;4915204;28;45224;-75
2021/09/07 08:34:42;;;;;;;;;19.25;14.00;;;;;21.61;57.31;102019.91;4910299;28;45321;-74
2021/09/07 08:37:07;;;;;;;;;16.75;14.50;;;;;21.65;56.78;102018.75;4916598;28;45576;-75
2021/09/07 08:39:33;;;;;;;;;21.25;15.50;;;;;21.69;57.30;102009.59;4921556;28;45337;-75
2021/09/07 08:41:58;;;;;;;;;14.50;12.25;;;;;21.79;55.95;102017.91;4922020;28;45240;-75
2021/09/07 08:44:24;;;;;;;;;17.50;14.00;;;;;21.86;56.46;102015.72;4924058;28;45324;-74
2021/09/07 08:46:51;;;;;;;;;16.00;16.00;;;;;21.91;56.67;102006.50;4925356;28;45327;-74
2021/09/07 08:49:19;;;;;;;;;20.75;16.25;;;;;21.98;56.43;102012.31;4908877;28;46608;-74
2021/09/07 08:51:45;;;;;;;;;14.50;11.75;;;;;22.02;55.87;102019.22;4908013;28;45328;-74
2021/09/07 08:54:11;;;;;;;;;17.75;16.00;;;;;22.06;56.36;102011.00;4920127;28;45380;-75
2021/09/07 08:56:36;;;;;;;;;15.25;14.00;;;;;22.11;56.87;102014.25;4922997;28;45255;-74
2021/09/07 08:59:01;;;;;;;;;16.25;14.50;;;;;22.13;55.57;102017.69;4918175;28;45599;-75
2021/09/07 09:01:38;;;;;;;;;17.00;15.25;;;;;22.18;55.96;102018.25;4912586;28;45316;-75
2021/09/07 09:04:03;;;;;;;;;15.25;15.25;;;;;22.21;56.79;102017.19;4911020;28;45350;-74
2021/09/07 09:06:29;;;;;;;;;14.00;13.00;;;;;22.24;56.82;102015.22;4905772;29;45330;-74
2021/09/07 09:09:06;;;;;;;;;15.75;13.00;;;;;22.26;56.69;102017.78;4905672;28;46535;-74
2021/09/07 09:11:55;;;;;;;;;14.25;11.75;;;;;22.27;55.92;102014.16;4899840;28;45236;-74
2021/09/07 09:14:33;;;;;;;;;15.00;14.50;;;;;22.31;55.72;102014.81;4905622;29;45233;-75
2021/09/07 09:16:59;;;;;;;;;15.00;13.50;;;;;22.35;55.70;102019.00;4905650;29;45405;-74
2021/09/07 09:19:25;;;;;;;;;17.00;16.50;;;;;22.37;55.21;102027.81;4905735;29;45428;-74
2021/09/07 09:21:50;;;;;;;;;15.00;13.50;;;;;22.38;56.13;102021.50;4907615;28;45499;-74
2021/09/07 09:24:20;;;;;;;;;13.50;12.25;;;;;22.42;55.19;102022.19;4918160;28;45242;-74
2021/09/07 09:27:05;;;;;;;;;19.00;13.25;;;;;22.45;55.38;102030.84;4907708;28;45694;-74
2021/09/07 09:29:33;;;;;;;;;15.00;12.00;;;;;22.49;54.78;102029.69;4924005;28;46274;-75
2021/09/07 09:32:04;;;;;;;;;12.75;10.75;;;;;22.52;54.39;102022.44;4917337;28;45377;-75
2021/09/07 09:34:31;;;;;;;;;11.50;11.25;;;;;22.61;54.46;102019.16;4924413;28;45247;-76
2021/09/07 09:36:59;;;;;;;;;15.50;13.25;;;;;22.74;52.77;102013.91;4917450;28;45276;-76
2021/09/07 09:39:38;;;;;;;;;13.50;11.25;;;;;22.88;53.58;102010.31;4905429;28;46469;-76
2021/09/07 09:42:04;;;;;;;;;12.25;12.25;;;;;22.92;52.74;102002.91;4905454;29;45506;-76
2021/09/07 09:44:30;;;;;;;;;12.75;11.00;;;;;23.04;52.64;102009.28;4905323;29;45470;-76
2021/09/07 09:46:56;;;;;;;;;34.50;22.75;;;;;23.10;50.06;101986.56;4918040;28;45282;-76
2021/09/07 09:49:22;;;;;;;;;17.75;16.75;;;;;23.23;50.68;101992.84;4905190;29;46493;-76
2021/09/07 09:51:49;;;;;;;;;15.50;13.25;;;;;23.32;49.07;101990.50;4906471;28;45376;-76
2021/09/07 09:54:16;;;;;;;;;17.75;13.25;;;;;23.44;50.98;101989.66;4918295;28;45368;-76
2021/09/07 09:56:42;;;;;;;;;14.00;12.75;;;;;23.54;51.17;101981.84;4916287;28;45475;-76
2021/09/07 09:59:08;;;;;;;;;14.50;11.00;;;;;23.58;50.88;101990.56;4917109;28;45524;-75
2021/09/07 10:01:37;;;;;;;;;13.50;12.75;;;;;23.57;50.85;101989.72;4911833;28;45726;-76
2021/09/07 10:04:04;;;;;;;;;15.00;11.75;;;;;23.63;50.35;101992.94;4905168;29;45594;-75
2021/09/07 10:06:30;;;;;;;;;16.25;13.00;;;;;23.67;49.71;101986.38;4911979;28;45444;-75
2021/09/07 10:08:55;;;;;;;;;14.25;13.50;;;;;23.75;49.21;101985.84;4914148;28;45488;-75
2021/09/07 10:11:24;;;;;;;;;13.75;12.00;;;;;23.83;49.77;101983.47;4922317;28;45241;-75
2021/09/07 10:13:55;;;;;;;;;15.25;13.75;;;;;23.89;50.47;101976.81;4921663;28;45230;-76
2021/09/07 10:16:27;;;;;;;;;11.25;9.75;;;;;23.89;50.09;101976.81;4920181;28;45336;-76
2021/09/07 10:18:55;;;;;;;;;19.25;14.50;;;;;23.81;50.24;101964.78;4910386;28;45566;-76
2021/09/07 10:24:16;;;;;;;;;18.50;14.75;;;;;23.73;49.54;101960.94;4904207;28;45428;-75
2021/09/07 10:26:42;;;;;;;;;18.25;13.75;;;;;23.76;49.92;101961.56;4887698;29;46334;-75
2021/09/07 10:29:38;;;;;;;;;13.00;13.00;;;;;23.78;49.97;101958.81;4902442;29;47102;-75
2021/09/07 10:32:25;;;;;;;;;15.75;13.75;;;;;23.77;49.66;101955.25;4904486;29;45297;-75
2021/09/07 10:35:08;;;;;;;;;12.25;11.00;;;;;23.82;47.58;101953.09;4917240;28;45164;-76
2021/09/07 10:38:06;;;;;;;;;14.25;14.25;;;;;23.96;48.87;101945.88;4902309;28;46402;-76
2021/09/07 10:40:39;;;;;;;;;15.25;13.00;;;;;24.13;47.70;101946.47;4920969;28;45462;-76
2021/09/07 10:43:04;;;;;;;;;14.50;13.75;;;;;24.25;48.89;101936.66;4899130;29;45314;-76
2021/09/07 10:45:30;;;;;;;;;14.75;12.50;;;;;24.27;48.80;101932.94;4917160;28;45915;-76
2021/09/07 10:47:57;;;;;;;;;13.50;11.25;;;;;24.30;48.91;101936.38;4904389;28;45546;-76
2021/09/07 10:51:03;;;;;;;;;14.00;11.75;;;;;24.41;44.83;101928.38;4904155;29;45440;-76
2021/09/07 10:53:29;;;;;;;;;16.50;14.00;;;;;24.57;47.09;101919.19;4912652;28;45754;-76
2021/09/07 10:56:25;;;;;;;;;12.50;11.50;;;;;24.63;47.12;101916.03;4919462;28;45414;-76
2021/09/07 10:58:50;;;;;;;;;13.25;11.50;;;;;24.67;47.10;101904.06;4914068;28;45339;-76
2021/09/07 11:01:31;;;;;;;;;18.75;13.75;;;;;24.73;45.59;101906.31;4921548;28;46399;-76
2021/09/07 11:04:31;;;;;;;;;13.50;13.50;;;;;24.75;47.22;101894.56;4898120;28;45550;-76
2021/09/07 11:06:58;;;;;;;;;14.50;14.50;;;;;24.66;47.30;101890.75;4922139;28;45529;-76
2021/09/07 11:09:52;;;;;;;;;15.00;15.00;;;;;24.58;47.41;101885.97;4923080;28;45241;-76
2021/09/07 11:12:25;;;;;;;;;14.00;13.25;;;;;24.46;47.20;101883.25;4907550;28;45544;-76